createdAt,value
2023-06-10T06:05:27.480Z,17.47
2023-06-10T06:10:29.609Z,17.48
2023-06-10T06:15:31.739Z,17.54
2023-06-10T06:20:33.836Z,17.61
2023-06-10T06:25:36.754Z,17.81
2023-06-10T06:30:38.880Z,17.90
2023-06-10T06:35:41.332Z,17.97
2023-06-10T06:40:43.551Z,18.08
2023-06-10T06:45:46.260Z,18.05
2023-06-10T06:50:48.361Z,18.03
2023-06-10T06:55:50.475Z,18.20
2023-06-10T07:00:52.652Z,18.36
2023-06-10T07:05:54.877Z,18.65
2023-06-10T07:10:57.022Z,18.86
2023-06-10T07:15:59.168Z,19.17
2023-06-10T07:21:01.551Z,19.53
2023-06-10T07:26:03.857Z,19.67
2023-06-10T07:31:06.157Z,19.92
2023-06-10T07:36:08.543Z,20.25
2023-06-10T07:41:11.867Z,20.42
2023-06-10T07:46:14.053Z,20.45
2023-06-10T07:51:17.707Z,20.48
2023-06-10T07:56:21.799Z,20.54
2023-06-10T08:01:25.522Z,20.69
2023-06-10T08:06:27.754Z,20.74
2023-06-10T08:11:30.855Z,20.80
2023-06-10T08:16:33.066Z,20.95
2023-06-10T08:21:35.268Z,21.27
2023-06-10T08:26:37.586Z,21.60
2023-06-10T08:31:43.907Z,21.81
2023-06-10T08:36:46.656Z,21.95
2023-06-10T08:42:19.671Z,22.40
2023-06-10T08:47:24.382Z,22.66
2023-06-10T08:52:30.532Z,22.58
2023-06-10T08:57:32.661Z,22.75
2023-06-10T09:02:36.588Z,22.75
2023-06-10T09:07:39.679Z,22.48
2023-06-10T09:12:41.812Z,22.47
2023-06-10T09:17:44.534Z,22.73
2023-06-10T09:22:46.874Z,22.88
2023-06-10T09:27:55.322Z,22.76
2023-06-10T09:32:59.783Z,22.55
2023-06-10T09:38:03.456Z,22.48
2023-06-10T09:43:05.722Z,22.19
2023-06-10T09:48:08.111Z,21.93
2023-06-10T09:53:11.397Z,21.87
2023-06-10T09:58:13.515Z,21.86
2023-06-10T10:03:24.334Z,21.70
2023-06-10T10:08:26.860Z,21.66
2023-06-10T10:13:29.416Z,21.92
2023-06-10T10:18:32.716Z,22.08
2023-06-10T10:24:02.439Z,22.49
2023-06-10T10:29:21.145Z,22.76
2023-06-10T10:34:31.880Z,22.83
2023-06-10T10:39:36.293Z,23.00
2023-06-10T10:44:41.958Z,23.44
2023-06-10T10:49:46.123Z,23.74
2023-06-10T10:54:48.866Z,24.21
2023-06-10T10:59:52.686Z,25.29
2023-06-10T11:04:56.259Z,25.27
2023-06-10T11:10:15.174Z,25.41
2023-06-10T11:15:24.811Z,24.94
2023-06-10T11:20:46.278Z,24.37
2023-06-10T11:25:48.435Z,24.12
2023-06-10T11:30:58.741Z,23.95
2023-06-10T11:36:01.014Z,23.67
2023-06-10T11:41:04.126Z,23.78
2023-06-10T11:46:09.272Z,23.74
2023-06-10T11:51:11.492Z,23.84
2023-06-10T11:56:13.864Z,23.98
2023-06-10T12:01:28.263Z,24.45
2023-06-10T12:06:45.882Z,25.12
2023-06-10T12:11:53.507Z,25.70
2023-06-10T12:16:57.523Z,25.96
2023-06-10T12:22:02.223Z,26.30
2023-06-10T12:27:04.479Z,26.41
2023-06-10T12:32:08.493Z,26.31
2023-06-10T12:37:14.768Z,27.18
2023-06-10T12:42:16.962Z,27.23
2023-06-10T12:47:19.093Z,26.46
2023-06-10T12:52:21.319Z,26.32
2023-06-10T12:57:23.928Z,27.16
2023-06-10T13:02:26.024Z,27.73
2023-06-10T13:07:28.148Z,27.90
2023-06-10T13:12:38.319Z,28.24
2023-06-10T13:17:51.566Z,27.89
2023-06-10T13:22:53.918Z,27.33
2023-06-10T13:27:56.727Z,26.78
2023-06-10T13:32:58.942Z,26.43
2023-06-10T13:38:01.223Z,27.07
2023-06-10T13:43:03.750Z,27.77
2023-06-10T13:48:07.044Z,27.66
2023-06-10T13:53:09.205Z,27.48
2023-06-10T13:58:11.315Z,27.38
2023-06-10T14:03:13.511Z,27.80
2023-06-10T14:08:15.817Z,27.10
2023-06-10T14:13:18.519Z,26.20
2023-06-10T14:18:20.605Z,25.64
2023-06-10T14:23:22.767Z,25.33
2023-06-10T14:28:25.161Z,25.03
2023-06-10T14:33:27.279Z,24.89
2023-06-10T14:38:29.498Z,24.76
2023-06-10T14:43:31.725Z,24.71
2023-06-10T14:48:33.803Z,24.90
2023-06-10T14:53:36.015Z,25.01
2023-06-10T14:58:38.117Z,26.04
2023-06-10T15:03:40.290Z,25.80
2023-06-10T15:08:42.509Z,25.45
2023-06-10T15:13:44.696Z,25.32
2023-06-10T15:18:46.857Z,25.51
2023-06-10T15:23:49.000Z,25.26
2023-06-10T15:28:51.161Z,24.41
2023-06-10T15:33:53.274Z,23.92
2023-06-10T15:38:57.091Z,23.52
2023-06-10T15:44:02.263Z,23.20
2023-06-10T15:49:04.830Z,22.96
2023-06-10T15:54:06.963Z,22.72
2023-06-10T15:59:10.047Z,22.51
2023-06-10T16:04:12.255Z,22.32
2023-06-10T16:09:14.426Z,22.28
2023-06-10T16:14:16.558Z,22.22
2023-06-10T16:19:18.811Z,22.27
